Adolfo Gonzales Chaves, Argentina
Current Conditions -  °F | °C
As of 12:20 AM on Sunday 26 Oct 2014 (Local Time) from SAZM Reporting Station
Clear Clear  
Wind Chill: 64°   Ceiling: Unl
Heat Index: 64°   Visibility: 4mi
Dew Point: 61°   Wind: 7mph
Humidity: 88%   Direction: 50°NE
Pressure: 29.85"   Gusts: NA
Location:  38.03°S, 60.1°W
Report Text: SAZM 260320Z 05006KT 7000 NSC 18/16 Q1011 RETS
Loading
Personal Weather Stations






























Interactive Weather Map
Tropical Storm Tracking
New forecast layout! Learn more

10-Day Weather Forecast

Advertisements
Track Severe Weather on mobile